createdAt,value
2022-08-03T00:01:38.179Z,66.82
2022-08-03T00:04:07.820Z,66.72
2022-08-03T00:06:37.165Z,67.17
2022-08-03T00:09:06.846Z,66.86
2022-08-03T00:11:33.367Z,66.92
2022-08-03T00:13:59.541Z,66.49
2022-08-03T00:16:26.538Z,66.46
2022-08-03T00:18:53.154Z,66.06
2022-08-03T00:21:19.348Z,66.22
2022-08-03T00:23:51.301Z,66.40
2022-08-03T00:26:18.189Z,66.83
2022-08-03T00:28:44.374Z,66.87
2022-08-03T00:31:13.500Z,67.21
2022-08-03T00:33:58.229Z,67.92
2022-08-03T00:36:26.134Z,67.48
2022-08-03T00:38:52.323Z,67.82
2022-08-03T00:41:18.467Z,67.80
2022-08-03T00:43:45.059Z,67.58
2022-08-03T00:46:11.213Z,68.14
2022-08-03T00:48:37.408Z,68.22
2022-08-03T00:51:03.716Z,68.43
2022-08-03T00:53:30.366Z,68.77
2022-08-03T00:55:56.562Z,68.82
2022-08-03T00:58:24.250Z,68.61
2022-08-03T01:00:50.484Z,68.77
2022-08-03T01:03:16.841Z,69.07
2022-08-03T01:06:38.521Z,69.41
2022-08-03T01:09:23.023Z,68.97
2022-08-03T01:12:15.894Z,69.20
2022-08-03T01:14:49.302Z,68.97
2022-08-03T01:17:23.304Z,68.61
2022-08-03T01:19:56.354Z,68.25
2022-08-03T01:23:00.760Z,68.17
2022-08-03T01:26:00.898Z,68.49
2022-08-03T01:28:54.552Z,67.78
2022-08-03T01:31:26.140Z,67.00
2022-08-03T01:33:58.978Z,66.42
2022-08-03T01:36:32.422Z,66.39
2022-08-03T01:39:01.872Z,65.98
2022-08-03T01:41:35.285Z,66.13
2022-08-03T01:44:28.331Z,66.35
2022-08-03T01:46:51.447Z,65.94
2022-08-03T01:49:18.407Z,65.88
2022-08-03T01:52:03.301Z,65.65
2022-08-03T01:54:32.845Z,65.19
2022-08-03T01:56:59.803Z,65.17
2022-08-03T01:59:28.001Z,65.36
2022-08-03T02:02:27.740Z,65.32
2022-08-03T02:04:43.953Z,65.27
2022-08-03T02:07:10.589Z,65.04
2022-08-03T02:09:44.398Z,64.63
2022-08-03T02:12:12.330Z,64.01
2022-08-03T02:14:40.990Z,63.79
2022-08-03T02:17:07.942Z,63.54
2022-08-03T02:19:35.937Z,63.50
2022-08-03T02:22:04.939Z,63.41
2022-08-03T02:24:32.503Z,63.12
2022-08-03T02:27:00.107Z,62.35
2022-08-03T02:29:39.689Z,62.64
2022-08-03T02:32:14.390Z,61.96
2022-08-03T02:34:46.209Z,62.72
2022-08-03T02:37:13.596Z,62.65
2022-08-03T02:39:41.089Z,63.13
2022-08-03T02:42:12.698Z,62.40
2022-08-03T02:44:40.446Z,62.63
2022-08-03T02:47:10.975Z,62.65
2022-08-03T02:49:50.849Z,62.84
2022-08-03T02:52:21.642Z,63.35
2022-08-03T02:54:51.261Z,63.30
2022-08-03T02:57:20.023Z,62.88
2022-08-03T02:59:47.104Z,63.19
2022-08-03T03:02:15.879Z,63.07
2022-08-03T03:04:58.829Z,63.41
2022-08-03T03:07:31.389Z,62.89
2022-08-03T03:10:07.195Z,62.90
2022-08-03T03:12:33.693Z,62.82
2022-08-03T03:14:59.855Z,62.90
2022-08-03T03:17:26.976Z,63.13
2022-08-03T03:19:54.287Z,63.34
2022-08-03T03:22:22.584Z,62.73
2022-08-03T03:24:51.813Z,63.44
2022-08-03T03:27:18.383Z,63.18
2022-08-03T03:29:45.006Z,63.04
2022-08-03T03:32:11.162Z,63.12
2022-08-03T03:34:37.649Z,63.52
2022-08-03T03:37:04.015Z,63.08
2022-08-03T03:39:30.212Z,62.86
2022-08-03T03:41:57.458Z,62.68
2022-08-03T03:44:27.977Z,62.62
2022-08-03T03:46:54.142Z,63.09
2022-08-03T03:49:21.259Z,62.89
2022-08-03T03:51:47.487Z,62.94
2022-08-03T03:54:13.682Z,62.86
2022-08-03T03:56:39.943Z,63.05
2022-08-03T03:59:06.321Z,63.09
2022-08-03T04:01:32.650Z,63.12
2022-08-03T04:04:18.771Z,63.69
2022-08-03T04:07:03.994Z,63.95
2022-08-03T04:09:49.766Z,64.31
2022-08-03T04:12:17.457Z,64.48
2022-08-03T04:14:44.758Z,64.63
2022-08-03T04:17:13.693Z,64.82
2022-08-03T04:19:47.848Z,64.64
2022-08-03T04:22:18.816Z,64.57
2022-08-03T04:24:48.842Z,64.61
2022-08-03T04:27:19.446Z,64.91
2022-08-03T04:29:49.374Z,65.41
2022-08-03T04:32:17.488Z,65.76
2022-08-03T04:34:44.366Z,65.74
2022-08-03T04:37:13.042Z,66.29
2022-08-03T04:39:42.738Z,66.69
2022-08-03T04:42:13.174Z,66.71
2022-08-03T04:44:43.101Z,66.62
2022-08-03T04:47:09.249Z,66.76
2022-08-03T04:49:37.994Z,66.41
2022-08-03T04:52:07.321Z,66.89
2022-08-03T04:54:45.830Z,66.89
2022-08-03T04:57:22.348Z,66.61
2022-08-03T04:59:56.640Z,66.37
2022-08-03T05:02:27.353Z,66.56
2022-08-03T05:04:53.532Z,66.50
2022-08-03T05:07:24.873Z,66.15
2022-08-03T05:09:52.808Z,65.63
2022-08-03T05:12:23.932Z,65.33
2022-08-03T05:14:50.089Z,64.82
2022-08-03T05:17:16.269Z,64.71
2022-08-03T05:19:42.427Z,64.15
2022-08-03T05:22:08.583Z,63.38
2022-08-03T05:24:35.160Z,62.79
2022-08-03T05:27:01.302Z,61.31
2022-08-03T05:29:27.502Z,61.07
2022-08-03T05:31:53.663Z,59.69
2022-08-03T05:34:19.865Z,59.23
2022-08-03T05:36:46.023Z,58.82
2022-08-03T05:39:12.180Z,57.98
2022-08-03T05:41:38.313Z,57.61
2022-08-03T05:44:04.809Z,57.43
2022-08-03T05:46:30.964Z,57.02
2022-08-03T05:48:57.271Z,56.17
2022-08-03T05:51:23.451Z,55.72
2022-08-03T05:53:49.620Z,54.79
2022-08-03T05:56:16.809Z,54.50
2022-08-03T05:58:47.833Z,54.85
2022-08-03T06:01:15.596Z,53.79
2022-08-03T06:03:41.835Z,53.38
2022-08-03T06:06:08.440Z,53.03
2022-08-03T06:08:35.513Z,52.71
2022-08-03T06:11:01.658Z,52.06
2022-08-03T06:13:27.916Z,51.41
2022-08-03T06:15:54.146Z,50.82
2022-08-03T06:18:20.351Z,50.21
2022-08-03T06:20:47.169Z,49.94
2022-08-03T06:23:16.244Z,49.71
2022-08-03T06:25:44.045Z,49.96
2022-08-03T06:28:19.061Z,49.83
2022-08-03T06:30:55.164Z,49.43
2022-08-03T06:33:21.318Z,48.15
2022-08-03T06:35:47.503Z,48.42
2022-08-03T06:38:13.655Z,47.18
2022-08-03T06:40:42.627Z,46.96
2022-08-03T06:43:12.683Z,47.23
2022-08-03T06:45:40.307Z,45.39
2022-08-03T06:48:09.177Z,44.75
2022-08-03T06:50:37.223Z,44.62
2022-08-03T06:53:04.964Z,43.60
2022-08-03T06:55:32.325Z,43.87
2022-08-03T06:58:00.189Z,43.95
2022-08-03T07:00:30.897Z,43.44
2022-08-03T07:02:58.387Z,43.88
2022-08-03T07:05:24.887Z,43.42
2022-08-03T07:07:51.088Z,43.15
2022-08-03T07:10:17.252Z,42.80
2022-08-03T07:12:52.799Z,42.07
2022-08-03T07:15:54.161Z,42.52
2022-08-03T07:18:09.471Z,41.23
2022-08-03T07:20:35.668Z,41.09
2022-08-03T07:23:01.820Z,41.19
2022-08-03T07:25:27.996Z,40.67
2022-08-03T07:27:54.133Z,39.42
2022-08-03T07:30:22.549Z,39.11
2022-08-03T07:32:50.228Z,38.81
2022-08-03T07:35:22.753Z,39.30
2022-08-03T07:37:54.205Z,39.19
2022-08-03T07:40:21.225Z,38.95
2022-08-03T07:42:47.447Z,38.30
2022-08-03T07:45:18.181Z,38.05
2022-08-03T07:47:44.325Z,38.18
2022-08-03T07:50:20.015Z,38.29
2022-08-03T07:52:53.202Z,38.45
2022-08-03T07:55:21.214Z,37.93
2022-08-03T07:57:48.215Z,37.23
2022-08-03T08:00:19.283Z,36.68
2022-08-03T08:02:45.930Z,36.37
2022-08-03T08:05:12.702Z,36.86
2022-08-03T08:07:39.690Z,35.54
2022-08-03T08:10:07.880Z,35.88
2022-08-03T08:12:34.023Z,36.49
2022-08-03T08:15:00.217Z,36.35
2022-08-03T08:17:26.390Z,36.90
2022-08-03T08:19:53.293Z,37.58
2022-08-03T08:22:28.055Z,37.36
2022-08-03T08:24:57.001Z,37.22
2022-08-03T08:27:23.213Z,37.85
2022-08-03T08:29:54.222Z,37.30
2022-08-03T08:32:22.569Z,37.24
2022-08-03T08:34:48.735Z,37.42
2022-08-03T08:37:15.091Z,36.94
2022-08-03T08:39:41.240Z,36.73
2022-08-03T08:42:07.391Z,36.46
2022-08-03T08:44:33.578Z,36.98
2022-08-03T08:47:03.207Z,36.38
2022-08-03T08:49:32.901Z,35.10
2022-08-03T08:52:01.635Z,34.86
2022-08-03T08:54:29.673Z,34.39
2022-08-03T08:56:57.371Z,35.23
2022-08-03T08:59:25.168Z,34.85
2022-08-03T09:01:51.498Z,34.95
2022-08-03T09:04:17.912Z,35.11
2022-08-03T09:06:58.663Z,34.29
2022-08-03T09:10:10.648Z,34.14
2022-08-03T09:12:40.864Z,34.47
2022-08-03T09:15:26.056Z,33.87
2022-08-03T09:17:56.735Z,33.37
2022-08-03T09:20:24.674Z,34.02
2022-08-03T09:23:51.583Z,32.77
2022-08-03T09:26:01.814Z,32.81
2022-08-03T09:28:56.282Z,32.60
2022-08-03T09:31:33.150Z,32.91
2022-08-03T09:34:02.671Z,32.64
2022-08-03T09:36:46.503Z,32.66
2022-08-03T09:39:15.236Z,32.08
2022-08-03T09:41:44.500Z,31.96
2022-08-03T09:44:24.281Z,32.13
2022-08-03T09:46:55.293Z,32.40
2022-08-03T09:49:21.579Z,32.03
2022-08-03T09:52:32.257Z,32.02
2022-08-03T09:54:34.638Z,31.79
2022-08-03T09:57:01.269Z,31.84
2022-08-03T09:59:29.743Z,31.80
2022-08-03T10:01:57.600Z,31.94
2022-08-03T10:04:24.526Z,31.55
2022-08-03T10:07:10.840Z,31.48
2022-08-03T10:09:38.132Z,31.58
2022-08-03T10:12:12.534Z,30.43
2022-08-03T10:14:39.855Z,31.05
2022-08-03T10:17:06.155Z,30.57
2022-08-03T10:19:33.384Z,29.99
2022-08-03T10:22:10.459Z,30.13
2022-08-03T10:24:39.094Z,30.22
2022-08-03T10:27:09.899Z,29.98
2022-08-03T10:29:42.790Z,29.41
2022-08-03T10:32:32.998Z,29.81
2022-08-03T10:35:12.392Z,29.50
2022-08-03T10:38:03.287Z,29.49
2022-08-03T10:40:49.366Z,29.26
2022-08-03T10:43:23.095Z,28.97
2022-08-03T10:45:49.760Z,28.92
2022-08-03T10:48:17.631Z,28.48
2022-08-03T10:50:44.435Z,28.68
2022-08-03T10:53:10.698Z,28.79
2022-08-03T10:56:01.771Z,28.19
2022-08-03T10:58:37.047Z,28.68
2022-08-03T11:01:08.342Z,27.68
2022-08-03T11:03:55.185Z,28.42
2022-08-03T11:06:24.679Z,27.82
2022-08-03T11:09:10.739Z,27.92
2022-08-03T11:11:41.988Z,28.00
2022-08-03T11:14:11.434Z,27.68
2022-08-03T11:16:45.261Z,27.92
2022-08-03T11:19:13.708Z,28.11
2022-08-03T11:21:51.840Z,27.76
2022-08-03T11:24:36.517Z,27.35
2022-08-03T11:27:14.958Z,27.67
2022-08-03T11:29:57.451Z,27.86
2022-08-03T11:32:48.306Z,27.85
2022-08-03T11:35:33.812Z,27.93
2022-08-03T11:38:07.210Z,27.44
2022-08-03T11:40:34.787Z,27.62
2022-08-03T11:43:01.340Z,27.21
2022-08-03T11:45:28.144Z,27.24
2022-08-03T11:47:55.720Z,26.99
2022-08-03T11:50:22.593Z,26.89
2022-08-03T11:52:49.819Z,27.03
2022-08-03T15:12:16.943Z,19.36
2022-08-03T15:14:43.158Z,19.42
2022-08-03T15:17:09.614Z,19.41
2022-08-03T15:20:00.218Z,18.91
2022-08-03T15:22:25.004Z,19.04
2022-08-03T15:25:00.612Z,18.80
2022-08-03T15:27:26.839Z,18.50
2022-08-03T15:30:06.813Z,18.19
2022-08-03T15:32:36.566Z,17.45
2022-08-03T15:35:02.787Z,17.79
2022-08-03T15:37:31.612Z,17.51
2022-08-03T15:39:59.009Z,17.12
2022-08-03T15:42:26.761Z,17.64
2022-08-03T15:44:53.940Z,18.24
2022-08-03T15:47:21.084Z,17.56
2022-08-03T15:49:47.531Z,17.86
2022-08-03T15:52:13.692Z,17.40
2022-08-03T15:54:39.883Z,17.14
2022-08-03T15:57:06.138Z,17.31
2022-08-03T15:59:32.331Z,16.57
2022-08-03T16:01:58.715Z,17.03
2022-08-03T16:04:27.524Z,16.58
2022-08-03T16:06:53.709Z,16.61
2022-08-03T16:09:24.039Z,16.34
2022-08-03T16:12:06.233Z,16.71
2022-08-03T16:14:51.962Z,16.27
2022-08-03T16:17:19.047Z,16.73
2022-08-03T16:19:45.380Z,16.59
2022-08-03T16:22:11.528Z,16.32
2022-08-03T16:24:40.474Z,16.39
2022-08-03T16:27:06.769Z,16.82
2022-08-03T16:29:43.971Z,16.83
2022-08-03T16:32:10.903Z,16.24
2022-08-03T16:34:38.535Z,16.32
2022-08-03T16:37:35.317Z,16.33
2022-08-03T16:39:51.769Z,17.17
2022-08-03T16:42:17.922Z,17.44
2022-08-03T16:44:44.165Z,18.40
2022-08-03T16:47:10.322Z,18.81
2022-08-03T16:49:55.396Z,18.93
2022-08-03T16:52:22.770Z,19.26
2022-08-03T16:54:52.718Z,18.95
2022-08-03T16:57:56.280Z,18.63
2022-08-03T17:00:08.701Z,18.82
2022-08-03T17:02:36.214Z,18.98
2022-08-03T17:05:03.039Z,17.67
2022-08-03T17:07:30.392Z,17.49
2022-08-03T17:09:57.354Z,18.13
2022-08-03T17:12:23.511Z,17.95
2022-08-03T17:14:53.579Z,16.97
2022-08-03T17:17:30.059Z,17.04
2022-08-03T17:20:09.749Z,17.23
2022-08-03T17:22:39.276Z,17.10
2022-08-03T17:25:09.607Z,17.12
2022-08-03T17:28:50.237Z,17.08
2022-08-03T17:30:57.165Z,17.61
2022-08-03T17:33:27.059Z,17.81
2022-08-03T17:36:01.878Z,17.13
2022-08-03T17:38:31.908Z,17.79
2022-08-03T17:41:00.986Z,18.83
2022-08-03T17:44:12.800Z,19.78
2022-08-03T17:46:26.658Z,19.96
2022-08-03T17:48:54.167Z,21.37
2022-08-03T17:51:33.593Z,22.07
2022-08-03T17:54:20.019Z,22.76
2022-08-03T17:57:22.062Z,22.94
2022-08-03T18:00:32.828Z,24.42
2022-08-03T18:03:25.339Z,24.53
2022-08-03T18:08:51.044Z,26.38
2022-08-03T18:11:22.902Z,26.42
2022-08-03T18:14:16.048Z,26.62
2022-08-03T18:16:56.477Z,27.61
2022-08-03T18:20:02.734Z,27.72
2022-08-03T18:22:11.313Z,28.54
2022-08-03T18:24:38.424Z,29.14
2022-08-03T18:27:06.562Z,29.96
2022-08-03T18:29:33.792Z,29.63
2022-08-03T18:32:06.805Z,30.94
2022-08-03T18:34:37.228Z,31.19
2022-08-03T18:37:25.165Z,32.12
2022-08-03T18:39:57.864Z,33.00
2022-08-03T18:42:26.326Z,34.11
2022-08-03T18:44:56.442Z,34.79
2022-08-03T18:47:53.140Z,35.35
2022-08-03T18:50:30.824Z,35.57
2022-08-03T18:53:16.247Z,35.46
2022-08-03T18:56:02.228Z,36.23
2022-08-03T18:58:39.737Z,37.10
2022-08-03T19:01:58.128Z,37.89
2022-08-03T19:04:09.570Z,39.14
2022-08-03T19:06:42.170Z,39.26
2022-08-03T19:09:31.930Z,40.51
2022-08-03T19:12:12.431Z,40.67
2022-08-03T19:15:10.534Z,41.08
2022-08-03T19:17:53.713Z,41.15
2022-08-03T19:20:30.840Z,41.91
2022-08-03T19:22:59.339Z,42.51
2022-08-03T19:25:35.036Z,43.15
2022-08-03T19:28:03.871Z,43.17
2022-08-03T19:30:46.478Z,44.14
2022-08-03T19:33:19.785Z,45.25
2022-08-03T19:35:55.640Z,45.59
2022-08-03T19:38:29.313Z,45.41
2022-08-03T19:41:08.578Z,45.90
2022-08-03T19:43:49.368Z,46.65
2022-08-03T19:46:22.396Z,47.25
2022-08-03T19:48:59.287Z,47.32
2022-08-03T19:51:59.048Z,47.91
2022-08-03T19:54:29.339Z,48.57
2022-08-03T19:56:56.447Z,48.94
2022-08-03T19:59:23.585Z,49.27
2022-08-03T20:01:52.972Z,49.59
2022-08-03T20:04:20.969Z,50.18
2022-08-03T20:06:49.769Z,50.43
2022-08-03T20:09:16.558Z,51.28
2022-08-03T20:11:43.739Z,50.81
2022-08-03T20:14:11.813Z,51.71
2022-08-03T20:16:47.499Z,51.78
2022-08-03T20:19:14.754Z,52.14
2022-08-03T20:21:44.994Z,52.51
2022-08-03T20:24:25.185Z,52.44
2022-08-03T20:26:53.522Z,52.27
2022-08-03T20:30:05.429Z,53.06
2022-08-03T20:32:19.075Z,53.16
2022-08-03T20:34:50.695Z,52.90
2022-08-03T20:37:19.374Z,53.12
2022-08-03T20:39:48.329Z,53.64
2022-08-03T20:42:21.460Z,54.18
2022-08-03T20:44:54.246Z,54.90
2022-08-03T20:47:33.856Z,54.60
2022-08-03T20:50:02.785Z,55.29
2022-08-03T20:52:31.559Z,55.19
2022-08-03T20:54:59.303Z,55.72
2022-08-03T20:57:28.693Z,56.25
2022-08-03T21:00:00.645Z,56.10
2022-08-03T21:02:29.520Z,56.46
2022-08-03T21:04:57.932Z,56.52
2022-08-03T21:07:24.402Z,56.97
2022-08-03T21:09:53.106Z,56.62
2022-08-03T21:12:41.683Z,57.23
2022-08-03T21:12:56.699Z,25.55
2022-08-03T21:15:09.664Z,56.96
2022-08-03T21:17:57.950Z,56.92
2022-08-03T21:20:34.572Z,57.82
2022-08-03T21:23:00.952Z,56.82
2022-08-03T21:25:32.691Z,56.71
2022-08-03T21:28:00.710Z,56.77
2022-08-03T21:30:29.762Z,56.87
2022-08-03T21:32:57.960Z,56.89
2022-08-03T21:35:25.259Z,56.98
2022-08-03T21:38:20.840Z,57.10
2022-08-03T21:40:57.064Z,57.89
2022-08-03T21:43:23.308Z,57.87
2022-08-03T21:46:01.943Z,57.91
2022-08-03T21:48:35.162Z,58.17
2022-08-03T21:51:02.652Z,59.09
2022-08-03T21:54:00.289Z,58.67
2022-08-03T21:56:20.523Z,59.00
2022-08-03T21:58:51.406Z,59.58
2022-08-03T22:01:21.154Z,59.40
2022-08-03T22:03:53.103Z,58.95
2022-08-03T22:06:20.742Z,59.14
2022-08-03T22:08:50.102Z,59.94
2022-08-03T22:11:16.620Z,59.96
2022-08-03T22:13:44.429Z,60.84
2022-08-03T22:16:10.979Z,61.16
2022-08-03T22:18:41.568Z,61.04
2022-08-03T22:21:09.976Z,60.91
2022-08-03T22:23:42.202Z,61.36
2022-08-03T22:26:14.006Z,61.37
2022-08-03T22:28:40.444Z,61.43
2022-08-03T22:31:37.619Z,61.41
2022-08-03T22:33:53.856Z,61.25
2022-08-03T22:36:23.082Z,61.07
2022-08-03T22:38:51.542Z,61.47
2022-08-03T22:41:18.679Z,61.74
2022-08-03T22:43:44.957Z,61.56
2022-08-03T22:46:15.550Z,61.74
2022-08-03T22:48:46.534Z,61.54
2022-08-03T22:51:14.293Z,61.52
2022-08-03T22:53:40.779Z,61.35
2022-08-03T22:56:07.814Z,60.61
2022-08-03T22:58:33.971Z,60.67
2022-08-03T23:01:06.808Z,61.56
2022-08-03T23:04:00.030Z,61.59
2022-08-03T23:06:23.933Z,61.10
2022-08-03T23:08:50.497Z,60.76
2022-08-03T23:11:18.399Z,60.92
2022-08-03T23:13:48.354Z,61.01
2022-08-03T23:16:15.872Z,60.97
2022-08-03T23:18:56.046Z,61.17
2022-08-03T23:22:00.470Z,61.44
2022-08-03T23:24:17.736Z,61.86
2022-08-03T23:26:55.760Z,61.87
2022-08-03T23:29:23.257Z,61.37
2022-08-03T23:31:49.659Z,61.46
2022-08-03T23:34:36.081Z,61.71
2022-08-03T23:37:02.369Z,62.36
2022-08-03T23:39:34.896Z,61.84
2022-08-03T23:42:03.031Z,62.71
2022-08-03T23:44:30.990Z,62.49
2022-08-03T23:46:57.151Z,62.07
2022-08-03T23:49:23.302Z,62.36
2022-08-03T23:52:10.226Z,62.61
2022-08-03T23:54:57.086Z,62.35
2022-08-03T23:57:32.695Z,63.13
